createdAt,value
2022-09-12T00:00:04.711Z,69.90
2022-09-12T00:02:31.156Z,70.00
2022-09-12T00:04:57.586Z,69.90
2022-09-12T00:07:24.003Z,70.60
2022-09-12T00:09:50.415Z,70.00
2022-09-12T00:12:16.802Z,69.90
2022-09-12T00:14:43.191Z,70.10
2022-09-12T00:17:09.573Z,70.10
2022-09-12T00:19:35.978Z,69.90
2022-09-12T00:22:02.349Z,69.90
2022-09-12T00:24:28.764Z,70.00
2022-09-12T00:26:55.159Z,69.90
2022-09-12T00:29:21.571Z,70.20
2022-09-12T00:31:48.001Z,70.10
2022-09-12T00:34:14.431Z,70.00
2022-09-12T00:36:40.820Z,70.10
2022-09-12T00:39:07.221Z,69.80
2022-09-12T00:41:33.605Z,70.00
2022-09-12T00:44:00.040Z,69.90
2022-09-12T00:46:26.427Z,70.10
2022-09-12T00:48:52.831Z,69.90
2022-09-12T00:51:19.225Z,69.90
2022-09-12T00:53:45.621Z,70.60
2022-09-12T00:56:12.008Z,69.80
2022-09-12T00:58:38.418Z,70.00
2022-09-12T01:01:04.863Z,70.10
2022-09-12T01:03:31.309Z,69.70
2022-09-12T01:05:57.715Z,69.80
2022-09-12T01:08:24.115Z,70.40
2022-09-12T01:10:50.514Z,69.90
2022-09-12T01:13:16.917Z,69.90
2022-09-12T01:15:43.303Z,70.00
2022-09-12T01:18:09.699Z,69.80
2022-09-12T01:20:36.096Z,69.80
2022-09-12T01:23:02.516Z,70.00
2022-09-12T01:25:28.914Z,69.80
2022-09-12T01:27:55.330Z,69.80
2022-09-12T01:30:21.749Z,69.80
2022-09-12T01:32:48.165Z,69.80
2022-09-12T01:35:14.564Z,69.80
2022-09-12T01:37:40.968Z,69.90
2022-09-12T01:40:07.425Z,69.80
2022-09-12T01:42:33.851Z,69.80
2022-09-12T01:45:00.264Z,69.80
2022-09-12T01:47:26.671Z,69.80
2022-09-12T01:49:53.099Z,69.30
2022-09-12T01:52:19.503Z,69.80
2022-09-12T01:54:45.932Z,69.80
2022-09-12T01:57:12.313Z,69.80
2022-09-12T01:59:38.727Z,69.80
2022-09-12T02:02:05.189Z,69.80
2022-09-12T02:04:34.318Z,69.80
2022-09-12T02:07:00.875Z,69.80
2022-09-12T02:09:27.292Z,69.80
2022-09-12T02:11:53.673Z,69.70
2022-09-12T02:14:20.268Z,69.80
2022-09-12T02:16:46.727Z,69.70
2022-09-12T02:19:13.143Z,69.70
2022-09-12T02:21:39.527Z,70.60
2022-09-12T02:24:05.989Z,69.80
2022-09-12T02:26:32.380Z,69.80
2022-09-12T02:28:58.780Z,69.90
2022-09-12T02:31:25.192Z,69.90
2022-09-12T02:33:51.628Z,69.80
2022-09-12T02:36:18.026Z,69.70
2022-09-12T02:38:44.537Z,69.70
2022-09-12T02:41:11.098Z,69.80
2022-09-12T02:43:37.483Z,69.80
2022-09-12T02:46:03.908Z,69.80
2022-09-12T02:48:30.374Z,69.80
2022-09-12T02:50:56.754Z,69.70
2022-09-12T02:53:23.147Z,69.70
2022-09-12T02:55:49.537Z,69.70
2022-09-12T02:58:15.932Z,70.40
2022-09-12T03:00:42.344Z,69.70
2022-09-12T03:03:08.740Z,69.80
2022-09-12T03:05:35.133Z,69.70
2022-09-12T03:08:01.517Z,69.70
2022-09-12T03:10:27.945Z,69.60
2022-09-12T03:12:54.326Z,69.60
2022-09-12T03:15:20.739Z,69.60
2022-09-12T03:17:47.144Z,69.80
2022-09-12T03:20:13.549Z,69.60
2022-09-12T03:22:39.952Z,69.80
2022-09-12T03:25:06.387Z,69.70
2022-09-12T03:27:32.771Z,69.60
2022-09-12T03:29:59.180Z,69.60
2022-09-12T03:32:25.587Z,69.60
2022-09-12T03:34:52.010Z,69.70
2022-09-12T03:37:18.399Z,69.60
2022-09-12T03:39:44.847Z,69.60
2022-09-12T03:42:11.263Z,69.60
2022-09-12T03:44:37.671Z,69.40
2022-09-12T03:47:06.925Z,69.60
2022-09-12T03:49:35.687Z,69.80
2022-09-12T03:52:02.092Z,69.60
2022-09-12T03:54:28.525Z,70.30
2022-09-12T03:56:54.904Z,69.70
2022-09-12T03:59:21.294Z,69.70
2022-09-12T04:01:47.684Z,69.60
2022-09-12T04:04:14.231Z,70.40
2022-09-12T04:06:40.630Z,69.60
2022-09-12T04:09:07.040Z,69.60
2022-09-12T04:11:33.433Z,69.60
2022-09-12T04:13:59.836Z,69.60
2022-09-12T04:16:26.261Z,69.60
2022-09-12T04:18:52.688Z,69.60
2022-09-12T04:21:19.087Z,69.50
2022-09-12T04:23:45.573Z,69.50
2022-09-12T04:26:11.968Z,69.60
2022-09-12T04:28:38.364Z,69.60
2022-09-12T04:31:04.832Z,69.50
2022-09-12T04:33:31.345Z,69.60
2022-09-12T04:35:57.722Z,69.70
2022-09-12T04:38:24.160Z,69.50
2022-09-12T04:40:50.569Z,69.60
2022-09-12T04:43:17.007Z,69.60
2022-09-12T04:45:43.447Z,70.30
2022-09-12T04:48:09.929Z,69.70
2022-09-12T04:50:36.312Z,69.50
2022-09-12T04:53:02.723Z,69.70
2022-09-12T04:55:29.132Z,69.50
2022-09-12T04:57:55.552Z,69.50
2022-09-12T05:00:21.972Z,69.60
2022-09-12T05:02:48.362Z,69.50
2022-09-12T05:05:14.835Z,69.40
2022-09-12T05:07:41.251Z,69.40
2022-09-12T05:10:07.670Z,69.40
2022-09-12T05:12:34.131Z,69.50
2022-09-12T05:15:00.529Z,69.40
2022-09-12T05:17:26.940Z,69.40
2022-09-12T05:19:53.338Z,69.60
2022-09-12T05:22:19.779Z,69.40
2022-09-12T05:24:50.301Z,69.40
2022-09-12T05:27:17.023Z,69.50
2022-09-12T05:29:43.437Z,69.50
2022-09-12T05:32:09.837Z,69.40
2022-09-12T05:34:36.290Z,69.40
2022-09-12T05:37:02.854Z,69.50
2022-09-12T05:39:29.273Z,69.40
2022-09-12T05:41:55.667Z,69.40
2022-09-12T05:44:22.100Z,69.40
2022-09-12T05:46:48.534Z,69.40
2022-09-12T05:49:14.971Z,70.10
2022-09-12T05:51:41.389Z,69.40
2022-09-12T05:54:07.809Z,69.40
2022-09-12T05:56:34.221Z,69.40
2022-09-12T05:59:00.627Z,69.40
2022-09-12T06:01:27.119Z,69.40
2022-09-12T06:03:53.680Z,69.50
2022-09-12T06:06:20.113Z,69.40
2022-09-12T06:08:46.632Z,68.90
2022-09-12T06:11:13.167Z,70.10
2022-09-12T06:13:39.614Z,69.40
2022-09-12T06:16:06.046Z,69.40
2022-09-12T06:18:32.635Z,69.40
2022-09-12T06:20:59.140Z,69.60
2022-09-12T06:23:25.585Z,69.40
2022-09-12T06:25:52.046Z,69.40
2022-09-12T06:28:18.468Z,69.50
2022-09-12T06:30:44.910Z,69.40
2022-09-12T06:33:11.376Z,69.50
2022-09-12T06:35:37.785Z,69.40
2022-09-12T06:38:04.186Z,70.40
2022-09-12T06:40:30.603Z,69.50
2022-09-12T06:42:57.178Z,69.40
2022-09-12T06:45:23.609Z,69.40
2022-09-12T06:47:49.985Z,69.40
2022-09-12T06:50:16.384Z,69.40
2022-09-12T06:52:42.798Z,69.40
2022-09-12T06:55:09.210Z,69.10
2022-09-12T06:57:35.599Z,69.40
2022-09-12T07:00:02.005Z,69.40
2022-09-12T07:02:28.496Z,69.40
2022-09-12T07:04:54.966Z,69.60
2022-09-12T07:07:21.475Z,69.50
2022-09-12T07:09:47.887Z,69.40
2022-09-12T07:12:14.309Z,69.40
2022-09-12T07:14:40.714Z,69.40
2022-09-12T07:17:07.139Z,69.60
2022-09-12T07:19:33.644Z,69.40
2022-09-12T07:22:00.052Z,69.40
2022-09-12T07:24:26.479Z,69.30
2022-09-12T07:26:52.875Z,69.40
2022-09-12T07:29:35.922Z,69.40
2022-09-12T07:32:03.221Z,69.60
2022-09-12T07:34:31.187Z,69.40
2022-09-12T07:36:57.585Z,69.40
2022-09-12T07:39:24.024Z,69.50
2022-09-12T07:41:50.443Z,69.40
2022-09-12T07:44:16.856Z,69.60
2022-09-12T07:46:43.277Z,69.20
2022-09-12T07:49:09.894Z,69.40
2022-09-12T07:51:36.332Z,69.40
2022-09-12T07:54:02.789Z,69.40
2022-09-12T07:56:31.887Z,69.40
2022-09-12T07:59:00.116Z,69.40
2022-09-12T08:01:26.577Z,69.30
2022-09-12T08:03:53.059Z,69.50
2022-09-12T08:06:19.455Z,69.40
2022-09-12T08:08:45.846Z,69.30
2022-09-12T08:11:12.302Z,69.50
2022-09-12T08:13:38.731Z,69.50
2022-09-12T08:16:05.198Z,69.40
2022-09-12T08:18:31.657Z,69.40
2022-09-12T08:20:58.101Z,69.40
2022-09-12T08:23:24.499Z,69.40
2022-09-12T08:25:50.925Z,69.50
2022-09-12T08:28:17.352Z,69.30
2022-09-12T08:30:43.767Z,69.40
2022-09-12T08:33:10.197Z,69.30
2022-09-12T08:35:36.603Z,69.60
2022-09-12T08:38:03.011Z,69.50
2022-09-12T08:40:29.525Z,69.40
2022-09-12T08:42:55.935Z,69.60
2022-09-12T08:45:22.364Z,69.30
2022-09-12T08:47:48.780Z,69.50
2022-09-12T08:50:15.209Z,69.60
2022-09-12T08:52:41.624Z,69.50
2022-09-12T08:55:08.049Z,70.40
2022-09-12T08:57:34.534Z,69.70
2022-09-12T09:00:00.969Z,69.50
2022-09-12T09:02:29.796Z,69.50
2022-09-12T09:04:57.683Z,69.60
2022-09-12T09:07:24.097Z,69.70
2022-09-12T09:09:50.512Z,70.80
2022-09-12T09:12:16.995Z,69.60
2022-09-12T09:14:43.408Z,69.70
2022-09-12T09:17:09.817Z,70.30
2022-09-12T09:19:36.251Z,70.30
2022-09-12T09:22:02.655Z,69.60
2022-09-12T09:24:29.087Z,69.50
2022-09-12T09:26:55.525Z,69.60
2022-09-12T09:29:21.989Z,69.60
2022-09-12T09:31:48.390Z,69.80
2022-09-12T09:34:14.824Z,69.60
2022-09-12T09:36:41.225Z,69.50
2022-09-12T09:39:07.636Z,69.80
2022-09-12T09:41:34.059Z,69.60
2022-09-12T09:44:00.530Z,69.60
2022-09-12T09:46:27.095Z,70.00
2022-09-12T09:48:54.124Z,69.50
2022-09-12T09:51:20.511Z,69.50
2022-09-12T09:53:47.033Z,69.60
2022-09-12T09:56:13.448Z,69.60
2022-09-12T09:58:39.903Z,69.70
2022-09-12T10:01:06.345Z,69.60
2022-09-12T10:03:32.796Z,69.70
2022-09-12T10:05:59.219Z,69.80
2022-09-12T10:08:25.657Z,69.90
2022-09-12T10:10:52.077Z,70.20
2022-09-12T10:13:18.505Z,70.60
2022-09-12T10:15:44.950Z,69.80
2022-09-12T10:18:11.449Z,70.00
2022-09-12T10:20:37.850Z,69.70
2022-09-12T10:23:04.253Z,70.10
2022-09-12T10:25:30.675Z,69.70
2022-09-12T10:27:57.140Z,68.90
2022-09-12T10:30:23.611Z,70.10
2022-09-12T10:32:50.016Z,69.50
2022-09-12T10:35:16.424Z,69.70
2022-09-12T10:37:42.818Z,69.60
2022-09-12T10:40:09.310Z,69.40
2022-09-12T10:42:35.846Z,69.50
2022-09-12T10:45:02.253Z,69.50
2022-09-12T10:47:28.649Z,69.60
2022-09-12T10:49:55.113Z,70.20
2022-09-12T10:52:21.547Z,69.80
2022-09-12T10:54:47.992Z,70.80
2022-09-12T10:57:14.415Z,71.10
2022-09-12T10:59:40.880Z,70.60
2022-09-12T11:02:07.443Z,70.00
2022-09-12T11:04:33.955Z,70.10
2022-09-12T11:07:00.353Z,70.90
2022-09-12T11:09:26.772Z,70.90
2022-09-12T11:11:53.188Z,70.00
2022-09-12T11:14:19.571Z,70.10
2022-09-12T11:16:45.992Z,69.60
2022-09-12T11:19:12.420Z,70.20
2022-09-12T11:21:38.826Z,70.60
2022-09-12T11:24:05.235Z,69.90
2022-09-12T11:26:31.635Z,69.90
2022-09-12T11:28:58.048Z,69.90
2022-09-12T11:31:24.460Z,70.00
2022-09-12T11:33:53.094Z,70.90
2022-09-12T11:36:21.424Z,70.10
2022-09-12T11:38:47.992Z,69.90
2022-09-12T11:41:14.455Z,69.80
2022-09-12T11:43:40.850Z,69.90
2022-09-12T11:46:07.335Z,69.80
2022-09-12T11:48:33.762Z,69.60
2022-09-12T11:51:00.174Z,69.70
2022-09-12T11:53:26.557Z,69.80
2022-09-12T11:55:52.988Z,70.20
2022-09-12T11:58:19.421Z,70.00
2022-09-12T12:00:45.836Z,69.80
2022-09-12T12:03:12.316Z,70.60
2022-09-12T12:05:38.785Z,70.70
2022-09-12T12:08:05.195Z,69.90
2022-09-12T12:10:31.672Z,70.90
2022-09-12T12:12:58.048Z,69.40
2022-09-12T12:15:24.469Z,69.90
2022-09-12T12:17:51.088Z,70.20
2022-09-12T12:20:17.546Z,70.00
2022-09-12T12:22:43.959Z,70.00
2022-09-12T12:25:10.445Z,70.40
2022-09-12T12:27:36.849Z,70.10
2022-09-12T12:30:03.259Z,71.30
2022-09-12T12:32:29.662Z,70.00
2022-09-12T12:34:56.105Z,70.50
2022-09-12T12:37:22.509Z,70.10
2022-09-12T12:39:48.945Z,70.20
2022-09-12T12:42:19.070Z,69.80
2022-09-12T12:44:46.533Z,69.80
2022-09-12T12:47:12.933Z,69.70
2022-09-12T12:49:39.374Z,69.60
2022-09-12T12:52:05.780Z,69.80
2022-09-12T12:54:32.208Z,69.60
2022-09-12T12:56:58.614Z,70.10
2022-09-12T12:59:25.078Z,70.20
2022-09-12T13:01:54.979Z,70.30
2022-09-12T13:04:21.683Z,70.10
2022-09-12T13:06:48.084Z,70.00
2022-09-12T13:09:14.525Z,70.00
2022-09-12T13:11:40.934Z,69.70
2022-09-12T13:14:07.408Z,70.10
2022-09-12T13:16:33.789Z,69.70
2022-09-12T13:19:00.248Z,69.70
2022-09-12T13:21:26.655Z,69.70
2022-09-12T13:23:53.049Z,69.80
2022-09-12T13:26:19.443Z,69.70
2022-09-12T13:28:46.038Z,69.70
2022-09-12T13:31:12.723Z,69.60
2022-09-12T13:33:39.155Z,69.70
2022-09-12T13:36:05.590Z,69.80
2022-09-12T13:38:32.007Z,69.20
2022-09-12T13:40:58.428Z,70.10
2022-09-12T13:43:24.862Z,70.50
2022-09-12T13:45:51.281Z,70.60
2022-09-12T13:48:17.778Z,70.10
2022-09-12T13:50:44.204Z,70.10
2022-09-12T13:53:10.632Z,70.20
2022-09-12T13:55:37.090Z,71.80
2022-09-12T13:58:03.498Z,72.20
2022-09-12T14:00:29.919Z,70.30
2022-09-12T14:03:05.592Z,70.90
2022-09-12T14:05:32.041Z,70.00
2022-09-12T14:07:58.481Z,70.30
2022-09-12T14:10:24.934Z,70.80
2022-09-12T14:12:51.358Z,70.20
2022-09-12T14:15:17.757Z,70.20
2022-09-12T14:17:44.153Z,70.30
2022-09-12T14:20:10.590Z,70.10
2022-09-12T14:22:37.017Z,69.30
2022-09-12T14:25:03.471Z,71.60
2022-09-12T14:27:29.881Z,70.50
2022-09-12T14:29:56.299Z,70.10
2022-09-12T14:32:22.723Z,70.10
2022-09-12T14:34:49.154Z,70.60
2022-09-12T14:37:15.553Z,70.50
2022-09-12T14:39:42.064Z,70.90
2022-09-12T14:42:08.487Z,70.00
2022-09-12T14:44:34.912Z,70.00
2022-09-12T14:47:01.519Z,70.60
2022-09-12T14:49:27.964Z,70.00
2022-09-12T14:51:54.341Z,69.80
2022-09-12T14:54:20.749Z,69.30
2022-09-12T14:56:47.149Z,69.70
2022-09-12T14:59:13.552Z,69.80
2022-09-12T15:01:39.989Z,69.60
2022-09-12T15:04:06.450Z,69.90
2022-09-12T15:06:32.883Z,69.60
2022-09-12T15:08:59.279Z,69.70
2022-09-12T15:11:25.704Z,69.70
2022-09-12T15:13:52.122Z,70.20
2022-09-12T15:16:18.602Z,69.80
2022-09-12T15:18:45.014Z,70.10
2022-09-12T15:21:11.419Z,69.70
2022-09-12T15:23:37.819Z,70.10
2022-09-12T15:26:04.328Z,70.30
2022-09-12T15:28:30.746Z,70.60
2022-09-12T15:30:57.242Z,70.70
2022-09-12T15:33:23.696Z,71.60
2022-09-12T15:35:50.128Z,70.40
2022-09-12T15:38:16.781Z,70.20
2022-09-12T15:40:43.217Z,71.10
2022-09-12T15:43:09.623Z,70.10
2022-09-12T15:45:36.081Z,70.00
2022-09-12T15:48:02.493Z,70.10
2022-09-12T15:50:28.948Z,71.10
2022-09-12T15:52:55.358Z,70.30
2022-09-12T15:55:21.779Z,71.50
2022-09-12T15:57:48.201Z,70.70
2022-09-12T16:00:14.628Z,70.50
2022-09-12T16:02:41.056Z,70.30
2022-09-12T16:05:07.546Z,70.90
2022-09-12T16:07:33.943Z,69.80
2022-09-12T16:10:00.370Z,70.20
2022-09-12T16:12:26.793Z,70.30
2022-09-12T16:14:53.296Z,70.80
2022-09-12T16:17:19.763Z,72.00
2022-09-12T16:19:46.224Z,71.10
2022-09-12T16:22:12.630Z,71.60
2022-09-12T16:24:39.007Z,71.70
2022-09-12T16:27:05.426Z,70.80
2022-09-12T16:29:31.916Z,70.70
2022-09-12T16:31:58.398Z,70.80
2022-09-12T16:34:24.811Z,69.60
2022-09-12T16:36:51.241Z,71.20
2022-09-12T16:39:17.697Z,70.60
2022-09-12T16:41:44.214Z,70.80
2022-09-12T16:44:33.676Z,70.60
2022-09-12T16:47:00.188Z,69.80
2022-09-12T16:49:26.645Z,70.00
2022-09-12T16:51:53.053Z,70.90
2022-09-12T16:54:19.444Z,70.80
2022-09-12T16:56:45.873Z,70.80
2022-09-12T16:59:12.286Z,70.50
2022-09-12T17:01:38.750Z,70.20
2022-09-12T17:04:05.172Z,71.10
2022-09-12T17:06:31.591Z,70.30
2022-09-12T17:08:57.984Z,70.60
2022-09-12T17:11:24.415Z,70.60
2022-09-12T17:14:04.389Z,70.70
2022-09-12T17:16:31.649Z,70.30
2022-09-12T17:18:58.055Z,70.40
2022-09-12T17:21:24.480Z,70.30
2022-09-12T17:23:50.893Z,70.30
2022-09-12T17:26:17.308Z,70.50
2022-09-12T17:28:44.907Z,70.50
2022-09-12T17:31:11.373Z,71.60
2022-09-12T17:33:37.849Z,70.70
2022-09-12T17:36:04.274Z,71.00
2022-09-12T17:38:30.678Z,70.30
2022-09-12T17:40:59.967Z,70.90
2022-09-12T17:43:26.560Z,70.50
2022-09-12T17:45:52.989Z,70.60
2022-09-12T17:48:19.379Z,70.40
2022-09-12T17:50:45.786Z,70.90
2022-09-12T17:53:12.178Z,70.40
2022-09-12T17:55:38.621Z,70.90
2022-09-12T17:58:05.043Z,70.30
2022-09-12T18:00:31.519Z,70.80
2022-09-12T18:02:58.046Z,70.40
2022-09-12T18:05:24.528Z,71.60
2022-09-12T18:07:50.946Z,69.80
2022-09-12T18:10:17.389Z,71.30
2022-09-12T18:12:43.857Z,71.00
2022-09-12T18:15:10.297Z,70.50
2022-09-12T18:17:36.949Z,70.50
2022-09-12T18:20:03.359Z,70.40
2022-09-12T18:22:29.779Z,70.50
2022-09-12T18:24:56.234Z,70.30
2022-09-12T18:27:31.960Z,70.80
2022-09-12T18:30:19.535Z,70.50
2022-09-12T18:32:46.110Z,73.50
2022-09-12T18:35:12.575Z,72.80
2022-09-12T18:37:42.430Z,71.40
2022-09-12T18:40:09.024Z,69.10
2022-09-12T18:42:35.538Z,71.70
2022-09-12T18:45:02.046Z,73.00
2022-09-12T18:47:28.473Z,70.70
2022-09-12T18:49:54.939Z,71.90
2022-09-12T18:52:21.371Z,71.10
2022-09-12T18:54:47.980Z,71.40
2022-09-12T18:57:14.363Z,70.40
2022-09-12T18:59:40.848Z,70.60
2022-09-12T19:02:07.356Z,70.80
2022-09-12T19:04:33.848Z,70.80
2022-09-12T19:07:00.283Z,70.50
2022-09-12T19:09:26.698Z,70.50
2022-09-12T19:11:53.125Z,70.80
2022-09-12T19:14:19.570Z,70.80
2022-09-12T19:16:46.033Z,70.80
2022-09-12T19:19:12.453Z,70.90
2022-09-12T19:21:38.862Z,71.40
2022-09-12T19:24:05.317Z,70.80
2022-09-12T19:26:31.775Z,71.60
2022-09-12T19:28:58.206Z,71.10
2022-09-12T19:31:24.708Z,71.20
2022-09-12T19:33:51.162Z,71.10
2022-09-12T19:36:41.158Z,71.40
2022-09-12T19:39:04.021Z,70.90
2022-09-12T19:41:30.494Z,70.70
2022-09-12T19:43:56.969Z,71.00
2022-09-12T19:46:23.494Z,72.20
2022-09-12T19:48:49.937Z,70.80
2022-09-12T19:51:16.400Z,70.50
2022-09-12T19:53:42.827Z,71.20
2022-09-12T19:56:09.292Z,70.90
2022-09-12T19:58:35.805Z,71.50
2022-09-12T20:01:02.335Z,71.20
2022-09-12T20:03:31.984Z,71.00
2022-09-12T20:05:58.409Z,71.80
2022-09-12T20:08:24.856Z,70.90
2022-09-12T20:10:56.396Z,71.00
2022-09-12T20:13:23.378Z,71.30
2022-09-12T20:15:49.886Z,70.60
2022-09-12T20:18:16.292Z,70.60
2022-09-12T20:20:42.707Z,71.30
2022-09-12T20:23:09.113Z,70.80
2022-09-12T20:25:35.523Z,70.90
2022-09-12T20:28:01.945Z,70.70
2022-09-12T20:30:28.385Z,71.00
2022-09-12T20:32:54.811Z,71.30
2022-09-12T20:35:21.251Z,73.20
2022-09-12T20:37:47.653Z,72.50
2022-09-12T20:40:14.146Z,71.10
2022-09-12T20:42:40.560Z,71.30
2022-09-12T20:45:06.971Z,71.10
2022-09-12T20:47:33.415Z,70.60
2022-09-12T20:49:59.842Z,71.00
2022-09-12T20:52:26.275Z,71.00
2022-09-12T20:54:52.729Z,71.00
2022-09-12T20:57:19.168Z,73.10
2022-09-12T20:59:45.573Z,71.30
2022-09-12T21:02:12.155Z,71.20
2022-09-12T21:04:38.758Z,71.80
2022-09-12T21:07:05.188Z,71.10
2022-09-12T21:09:31.573Z,71.00
2022-09-12T21:11:58.063Z,71.40
2022-09-12T21:14:24.506Z,71.40
2022-09-12T21:16:50.915Z,71.00
2022-09-12T21:19:17.328Z,70.90
2022-09-12T21:21:43.747Z,71.10
2022-09-12T21:24:10.173Z,71.20
2022-09-12T21:26:36.622Z,71.10
2022-09-12T21:29:03.202Z,71.10
2022-09-12T21:31:29.648Z,71.00
2022-09-12T21:33:56.283Z,70.90
2022-09-12T21:36:22.738Z,70.80
2022-09-12T21:38:49.146Z,70.80
2022-09-12T21:41:15.577Z,71.10
2022-09-12T21:43:42.042Z,72.40
2022-09-12T21:46:08.571Z,70.80
2022-09-12T21:48:35.023Z,70.90
2022-09-12T21:51:01.450Z,71.70
2022-09-12T21:53:27.857Z,70.90
2022-09-12T21:55:54.275Z,71.80
2022-09-12T21:58:20.679Z,70.80
2022-09-12T22:00:47.140Z,71.40
2022-09-12T22:03:13.665Z,72.10
2022-09-12T22:05:40.121Z,70.80
2022-09-12T22:08:06.541Z,72.10
2022-09-12T22:10:32.947Z,71.00
2022-09-12T22:12:59.360Z,71.00
2022-09-12T22:15:41.482Z,70.90
2022-09-12T22:18:08.027Z,70.90
2022-09-12T22:20:34.451Z,71.30
2022-09-12T22:23:00.876Z,71.10
2022-09-12T22:25:27.285Z,71.10
2022-09-12T22:27:53.715Z,71.00
2022-09-12T22:30:20.122Z,71.50
2022-09-12T22:32:46.739Z,71.60
2022-09-12T22:35:13.130Z,70.90
2022-09-12T22:37:39.551Z,71.00
2022-09-12T22:40:06.041Z,70.80
2022-09-12T22:42:32.514Z,72.70
2022-09-12T22:44:58.906Z,70.90
2022-09-12T22:47:25.369Z,71.30
2022-09-12T22:49:51.793Z,71.10
2022-09-12T22:52:18.241Z,71.80
2022-09-12T22:54:44.678Z,71.30
2022-09-12T22:57:11.094Z,71.10
2022-09-12T22:59:37.504Z,71.20
2022-09-12T23:02:03.931Z,71.00
2022-09-12T23:04:30.323Z,70.80
2022-09-12T23:06:56.761Z,71.80
2022-09-12T23:09:23.166Z,70.90
2022-09-12T23:11:49.576Z,71.10
2022-09-12T23:14:15.979Z,71.20
2022-09-12T23:16:42.418Z,70.50
2022-09-12T23:19:08.898Z,71.00
2022-09-12T23:21:35.335Z,71.00
2022-09-12T23:24:01.735Z,70.90
2022-09-12T23:26:28.138Z,71.40
2022-09-12T23:28:54.541Z,70.80
2022-09-12T23:31:21.044Z,71.60
2022-09-12T23:33:47.496Z,71.30
2022-09-12T23:36:13.933Z,72.20
2022-09-12T23:38:40.341Z,70.90
2022-09-12T23:41:06.778Z,71.50
2022-09-12T23:43:33.166Z,70.90
2022-09-12T23:45:59.630Z,70.50
2022-09-12T23:48:26.076Z,71.20
2022-09-12T23:50:52.507Z,70.80
2022-09-12T23:53:18.931Z,71.20
2022-09-12T23:55:45.341Z,71.10
2022-09-12T23:58:11.766Z,70.90
